sensor_id;sensor_type;location;lat;lon;timestamp;temperature;humidity
3788;DHT22;1909;53.046;8.276;2023-02-21T00:02:13;9.20;99.90
3788;DHT22;1909;53.046;8.276;2023-02-21T00:04:59;9.30;99.90
3788;DHT22;1909;53.046;8.276;2023-02-21T00:07:43;9.40;99.90
3788;DHT22;1909;53.046;8.276;2023-02-21T00:10:27;9.50;99.90
3788;DHT22;1909;53.046;8.276;2023-02-21T00:13:11;9.50;99.90
3788;DHT22;1909;53.046;8.276;2023-02-21T00:15:58;9.50;99.90
3788;DHT22;1909;53.046;8.276;2023-02-21T00:18:44;9.50;99.90
3788;DHT22;1909;53.046;8.276;2023-02-21T00:29:46;9.60;99.90
3788;DHT22;1909;53.046;8.276;2023-02-21T00:43:34;9.80;99.90
3788;DHT22;1909;53.046;8.276;2023-02-21T00:46:19;9.70;99.90
3788;DHT22;1909;53.046;8.276;2023-02-21T00:49:04;9.70;99.90
3788;DHT22;1909;53.046;8.276;2023-02-21T00:51:49;9.60;99.90
3788;DHT22;1909;53.046;8.276;2023-02-21T00:54:34;9.50;99.90
3788;DHT22;1909;53.046;8.276;2023-02-21T00:57:19;9.40;99.90
3788;DHT22;1909;53.046;8.276;2023-02-21T01:00:05;9.40;99.90
3788;DHT22;1909;53.046;8.276;2023-02-21T01:02:49;9.30;99.90
3788;DHT22;1909;53.046;8.276;2023-02-21T01:05:33;9.30;99.90
3788;DHT22;1909;53.046;8.276;2023-02-21T01:08:17;9.30;99.90
3788;DHT22;1909;53.046;8.276;2023-02-21T01:11:03;9.30;99.90
3788;DHT22;1909;53.046;8.276;2023-02-21T01:13:47;9.30;99.90
3788;DHT22;1909;53.046;8.276;2023-02-21T01:16:32;9.70;99.90
3788;DHT22;1909;53.046;8.276;2023-02-21T01:19:16;9.30;99.90
3788;DHT22;1909;53.046;8.276;2023-02-21T01:22:01;9.30;99.90
3788;DHT22;1909;53.046;8.276;2023-02-21T01:24:48;9.30;99.90
3788;DHT22;1909;53.046;8.276;2023-02-21T01:27:33;9.30;99.90
3788;DHT22;1909;53.046;8.276;2023-02-21T01:30:17;9.30;99.90
3788;DHT22;1909;53.046;8.276;2023-02-21T01:33:02;9.30;99.90
3788;DHT22;1909;53.046;8.276;2023-02-21T01:35:46;9.30;99.90
3788;DHT22;1909;53.046;8.276;2023-02-21T01:38:32;9.30;99.90
3788;DHT22;1909;53.046;8.276;2023-02-21T01:41:16;9.30;99.90
3788;DHT22;1909;53.046;8.276;2023-02-21T01:44:03;9.20;99.90
3788;DHT22;1909;53.046;8.276;2023-02-21T01:46:48;9.30;99.90
3788;DHT22;1909;53.046;8.276;2023-02-21T01:49:33;9.20;99.90
3788;DHT22;1909;53.046;8.276;2023-02-21T01:52:17;9.30;99.90
3788;DHT22;1909;53.046;8.276;2023-02-21T01:55:02;9.20;99.90
3788;DHT22;1909;53.046;8.276;2023-02-21T01:57:47;9.30;99.90
3788;DHT22;1909;53.046;8.276;2023-02-21T02:00:33;9.20;99.90
3788;DHT22;1909;53.046;8.276;2023-02-21T02:03:18;9.20;99.90
3788;DHT22;1909;53.046;8.276;2023-02-21T02:06:05;9.20;99.90
3788;DHT22;1909;53.046;8.276;2023-02-21T02:08:50;9.20;99.90
3788;DHT22;1909;53.046;8.276;2023-02-21T02:11:52;9.20;99.90
3788;DHT22;1909;53.046;8.276;2023-02-21T02:14:50;9.20;99.90
3788;DHT22;1909;53.046;8.276;2023-02-21T02:17:27;9.20;99.90
3788;DHT22;1909;53.046;8.276;2023-02-21T02:23:38;9.30;99.90
3788;DHT22;1909;53.046;8.276;2023-02-21T02:26:32;9.30;99.90
3788;DHT22;1909;53.046;8.276;2023-02-21T02:29:11;9.20;99.90
3788;DHT22;1909;53.046;8.276;2023-02-21T03:10:06;9.20;99.90
3788;DHT22;1909;53.046;8.276;2023-02-21T03:12:37;9.10;99.90
3788;DHT22;1909;53.046;8.276;2023-02-21T03:15:10;9.10;99.90
3788;DHT22;1909;53.046;8.276;2023-02-21T03:17:44;8.90;99.90
3788;DHT22;1909;53.046;8.276;2023-02-21T03:20:15;9.00;99.90
3788;DHT22;1909;53.046;8.276;2023-02-21T03:22:44;9.10;99.90
3788;DHT22;1909;53.046;8.276;2023-02-21T03:25:13;9.00;99.90
3788;DHT22;1909;53.046;8.276;2023-02-21T03:27:42;9.00;99.90
3788;DHT22;1909;53.046;8.276;2023-02-21T03:30:10;9.00;99.90
3788;DHT22;1909;53.046;8.276;2023-02-21T03:32:39;9.00;99.90
3788;DHT22;1909;53.046;8.276;2023-02-21T03:35:09;9.00;99.90
3788;DHT22;1909;53.046;8.276;2023-02-21T03:37:42;9.00;99.90
3788;DHT22;1909;53.046;8.276;2023-02-21T03:40:10;9.00;99.90
3788;DHT22;1909;53.046;8.276;2023-02-21T03:42:37;9.00;99.90
3788;DHT22;1909;53.046;8.276;2023-02-21T03:45:04;9.00;99.90
3788;DHT22;1909;53.046;8.276;2023-02-21T03:47:31;9.00;99.90
3788;DHT22;1909;53.046;8.276;2023-02-21T03:49:58;9.10;99.90
3788;DHT22;1909;53.046;8.276;2023-02-21T03:52:25;9.00;99.90
3788;DHT22;1909;53.046;8.276;2023-02-21T03:54:53;8.50;99.90
3788;DHT22;1909;53.046;8.276;2023-02-21T03:57:19;9.10;99.90
3788;DHT22;1909;53.046;8.276;2023-02-21T03:59:46;9.10;99.90
3788;DHT22;1909;53.046;8.276;2023-02-21T04:02:13;8.50;99.90
3788;DHT22;1909;53.046;8.276;2023-02-21T04:04:40;9.10;99.90
3788;DHT22;1909;53.046;8.276;2023-02-21T04:07:07;9.10;99.90
3788;DHT22;1909;53.046;8.276;2023-02-21T04:09:33;9.10;99.90
3788;DHT22;1909;53.046;8.276;2023-02-21T04:12:01;9.00;99.90
3788;DHT22;1909;53.046;8.276;2023-02-21T04:14:28;9.00;99.90
3788;DHT22;1909;53.046;8.276;2023-02-21T04:16:55;9.00;99.90
3788;DHT22;1909;53.046;8.276;2023-02-21T04:19:21;9.00;99.90
3788;DHT22;1909;53.046;8.276;2023-02-21T04:21:48;9.10;99.90
3788;DHT22;1909;53.046;8.276;2023-02-21T04:24:15;9.00;99.90
3788;DHT22;1909;53.046;8.276;2023-02-21T04:26:44;9.00;99.90
3788;DHT22;1909;53.046;8.276;2023-02-21T04:34:08;8.90;99.90
3788;DHT22;1909;53.046;8.276;2023-02-21T04:36:34;9.10;99.90
3788;DHT22;1909;53.046;8.276;2023-02-21T04:39:02;9.10;99.90
3788;DHT22;1909;53.046;8.276;2023-02-21T04:41:29;8.90;99.90
3788;DHT22;1909;53.046;8.276;2023-02-21T04:43:56;9.00;99.90
3788;DHT22;1909;53.046;8.276;2023-02-21T04:46:24;9.20;99.90
3788;DHT22;1909;53.046;8.276;2023-02-21T04:51:21;9.10;99.90
3788;DHT22;1909;53.046;8.276;2023-02-21T04:53:49;9.10;99.90
3788;DHT22;1909;53.046;8.276;2023-02-21T04:56:18;9.10;99.90
3788;DHT22;1909;53.046;8.276;2023-02-21T04:58:45;8.90;99.90
3788;DHT22;1909;53.046;8.276;2023-02-21T05:01:13;9.30;99.90
3788;DHT22;1909;53.046;8.276;2023-02-21T05:03:41;8.80;99.90
3788;DHT22;1909;53.046;8.276;2023-02-21T05:06:08;9.50;99.90
3788;DHT22;1909;53.046;8.276;2023-02-21T05:08:35;9.10;99.90
3788;DHT22;1909;53.046;8.276;2023-02-21T05:11:02;9.80;99.90
3788;DHT22;1909;53.046;8.276;2023-02-21T05:13:29;9.00;99.90
3788;DHT22;1909;53.046;8.276;2023-02-21T05:20:54;9.40;99.90
3788;DHT22;1909;53.046;8.276;2023-02-21T05:57:53;9.30;99.90
3788;DHT22;1909;53.046;8.276;2023-02-21T06:00:24;8.50;99.90
3788;DHT22;1909;53.046;8.276;2023-02-21T06:02:52;9.20;99.90
3788;DHT22;1909;53.046;8.276;2023-02-21T06:05:20;9.30;99.90
3788;DHT22;1909;53.046;8.276;2023-02-21T06:07:47;9.30;99.90
3788;DHT22;1909;53.046;8.276;2023-02-21T06:10:15;9.30;99.90
3788;DHT22;1909;53.046;8.276;2023-02-21T06:12:43;9.10;99.90
3788;DHT22;1909;53.046;8.276;2023-02-21T06:15:10;9.30;99.90
3788;DHT22;1909;53.046;8.276;2023-02-21T06:17:37;9.30;99.90
3788;DHT22;1909;53.046;8.276;2023-02-21T06:20:05;9.30;99.90
3788;DHT22;1909;53.046;8.276;2023-02-21T06:22:32;9.30;99.90
3788;DHT22;1909;53.046;8.276;2023-02-21T06:24:59;9.30;99.90
3788;DHT22;1909;53.046;8.276;2023-02-21T06:27:28;9.30;99.90
3788;DHT22;1909;53.046;8.276;2023-02-21T06:29:56;9.60;99.90
3788;DHT22;1909;53.046;8.276;2023-02-21T06:32:22;8.90;99.90
3788;DHT22;1909;53.046;8.276;2023-02-21T06:34:49;9.20;99.90
3788;DHT22;1909;53.046;8.276;2023-02-21T06:37:16;9.30;99.90
3788;DHT22;1909;53.046;8.276;2023-02-21T06:39:43;9.40;99.90
3788;DHT22;1909;53.046;8.276;2023-02-21T06:42:12;9.30;99.90
3788;DHT22;1909;53.046;8.276;2023-02-21T06:44:39;9.30;99.90
3788;DHT22;1909;53.046;8.276;2023-02-21T06:47:07;9.30;99.90
3788;DHT22;1909;53.046;8.276;2023-02-21T06:52:00;9.40;99.90
3788;DHT22;1909;53.046;8.276;2023-02-21T06:54:27;9.40;99.90
3788;DHT22;1909;53.046;8.276;2023-02-21T07:09:11;9.40;99.90
3788;DHT22;1909;53.046;8.276;2023-02-21T07:11:38;9.40;99.90
3788;DHT22;1909;53.046;8.276;2023-02-21T07:14:05;9.40;99.90
3788;DHT22;1909;53.046;8.276;2023-02-21T07:16:31;9.50;99.90
3788;DHT22;1909;53.046;8.276;2023-02-21T07:18:58;9.40;99.90
3788;DHT22;1909;53.046;8.276;2023-02-21T07:21:26;9.30;99.90
3788;DHT22;1909;53.046;8.276;2023-02-21T07:23:56;9.40;99.90
3788;DHT22;1909;53.046;8.276;2023-02-21T07:26:22;9.40;99.90
3788;DHT22;1909;53.046;8.276;2023-02-21T07:28:49;9.40;99.90
3788;DHT22;1909;53.046;8.276;2023-02-21T07:31:15;9.40;99.90
3788;DHT22;1909;53.046;8.276;2023-02-21T07:33:44;9.40;99.90
3788;DHT22;1909;53.046;8.276;2023-02-21T07:36:10;9.30;99.90
3788;DHT22;1909;53.046;8.276;2023-02-21T07:55:53;9.50;99.90
3788;DHT22;1909;53.046;8.276;2023-02-21T07:58:19;9.50;99.90
3788;DHT22;1909;53.046;8.276;2023-02-21T08:03:13;9.30;99.90
3788;DHT22;1909;53.046;8.276;2023-02-21T08:05:40;9.30;99.90
3788;DHT22;1909;53.046;8.276;2023-02-21T08:08:07;9.50;99.90
3788;DHT22;1909;53.046;8.276;2023-02-21T08:10:34;9.50;99.90
3788;DHT22;1909;53.046;8.276;2023-02-21T08:13:03;9.50;99.90
3788;DHT22;1909;53.046;8.276;2023-02-21T08:15:30;9.50;99.90
3788;DHT22;1909;53.046;8.276;2023-02-21T08:17:57;9.50;99.90
3788;DHT22;1909;53.046;8.276;2023-02-21T08:20:23;9.30;99.90
3788;DHT22;1909;53.046;8.276;2023-02-21T08:22:50;9.50;99.90
3788;DHT22;1909;53.046;8.276;2023-02-21T08:25:17;9.70;99.90
3788;DHT22;1909;53.046;8.276;2023-02-21T08:27:44;9.50;99.90
3788;DHT22;1909;53.046;8.276;2023-02-21T08:32:41;9.50;99.90
3788;DHT22;1909;53.046;8.276;2023-02-21T08:35:12;9.60;99.90
3788;DHT22;1909;53.046;8.276;2023-02-21T08:37:39;9.60;99.90
3788;DHT22;1909;53.046;8.276;2023-02-21T08:40:10;9.50;99.90
3788;DHT22;1909;53.046;8.276;2023-02-21T08:42:38;9.60;99.90
3788;DHT22;1909;53.046;8.276;2023-02-21T08:45:05;9.60;99.90
3788;DHT22;1909;53.046;8.276;2023-02-21T08:47:34;9.60;99.90
3788;DHT22;1909;53.046;8.276;2023-02-21T08:50:01;9.60;99.90
3788;DHT22;1909;53.046;8.276;2023-02-21T08:52:28;9.60;99.90
3788;DHT22;1909;53.046;8.276;2023-02-21T08:54:55;9.60;99.90
3788;DHT22;1909;53.046;8.276;2023-02-21T08:57:21;9.60;99.90
3788;DHT22;1909;53.046;8.276;2023-02-21T08:59:48;9.60;99.90
3788;DHT22;1909;53.046;8.276;2023-02-21T09:02:15;9.60;99.90
3788;DHT22;1909;53.046;8.276;2023-02-21T09:04:44;9.50;99.90
3788;DHT22;1909;53.046;8.276;2023-02-21T09:07:12;9.50;99.90
3788;DHT22;1909;53.046;8.276;2023-02-21T09:19:28;9.60;99.90
3788;DHT22;1909;53.046;8.276;2023-02-21T09:21:56;9.70;99.90
3788;DHT22;1909;53.046;8.276;2023-02-21T09:26:51;9.80;99.90
3788;DHT22;1909;53.046;8.276;2023-02-21T09:29:19;9.80;99.90
3788;DHT22;1909;53.046;8.276;2023-02-21T09:31:47;9.70;99.90
3788;DHT22;1909;53.046;8.276;2023-02-21T09:53:58;9.80;99.90
3788;DHT22;1909;53.046;8.276;2023-02-21T10:06:22;9.90;99.90
3788;DHT22;1909;53.046;8.276;2023-02-21T10:08:52;9.90;99.90
3788;DHT22;1909;53.046;8.276;2023-02-21T10:11:24;9.80;99.90
3788;DHT22;1909;53.046;8.276;2023-02-21T10:13:59;9.80;99.90
3788;DHT22;1909;53.046;8.276;2023-02-21T10:16:27;9.80;99.90
3788;DHT22;1909;53.046;8.276;2023-02-21T10:18:59;9.80;99.90
3788;DHT22;1909;53.046;8.276;2023-02-21T10:21:31;9.80;99.90
3788;DHT22;1909;53.046;8.276;2023-02-21T10:26:30;10.10;99.90
3788;DHT22;1909;53.046;8.276;2023-02-21T10:28:59;10.10;99.90
3788;DHT22;1909;53.046;8.276;2023-02-21T10:36:21;9.90;99.90
3788;DHT22;1909;53.046;8.276;2023-02-21T10:38:51;10.10;99.90
3788;DHT22;1909;53.046;8.276;2023-02-21T10:41:21;10.00;99.90
3788;DHT22;1909;53.046;8.276;2023-02-21T10:43:48;10.10;99.90
3788;DHT22;1909;53.046;8.276;2023-02-21T10:46:19;10.10;99.90
3788;DHT22;1909;53.046;8.276;2023-02-21T10:58:34;10.80;99.90
3788;DHT22;1909;53.046;8.276;2023-02-21T11:01:09;10.70;99.90
3788;DHT22;1909;53.046;8.276;2023-02-21T11:03:41;10.60;99.90
3788;DHT22;1909;53.046;8.276;2023-02-21T11:06:08;10.60;99.90
3788;DHT22;1909;53.046;8.276;2023-02-21T11:08:35;10.50;99.90
3788;DHT22;1909;53.046;8.276;2023-02-21T11:11:03;10.50;99.90
3788;DHT22;1909;53.046;8.276;2023-02-21T11:13:29;10.60;99.90
3788;DHT22;1909;53.046;8.276;2023-02-21T11:16:06;10.50;99.90
3788;DHT22;1909;53.046;8.276;2023-02-21T11:18:33;10.50;99.90
3788;DHT22;1909;53.046;8.276;2023-02-21T11:21:08;10.50;99.90
3788;DHT22;1909;53.046;8.276;2023-02-21T11:23:35;10.60;99.90
3788;DHT22;1909;53.046;8.276;2023-02-21T11:26:05;10.60;99.90
3788;DHT22;1909;53.046;8.276;2023-02-21T11:28:35;10.70;99.90
3788;DHT22;1909;53.046;8.276;2023-02-21T11:31:04;10.70;99.90
3788;DHT22;1909;53.046;8.276;2023-02-21T11:33:31;10.80;99.90
3788;DHT22;1909;53.046;8.276;2023-02-21T11:36:07;10.80;99.90
3788;DHT22;1909;53.046;8.276;2023-02-21T11:38:36;10.80;99.90
3788;DHT22;1909;53.046;8.276;2023-02-21T11:41:14;10.90;99.90
3788;DHT22;1909;53.046;8.276;2023-02-21T11:48:40;10.80;99.90
3788;DHT22;1909;53.046;8.276;2023-02-21T11:51:15;10.90;99.90
3788;DHT22;1909;53.046;8.276;2023-02-21T11:53:45;10.80;99.90
3788;DHT22;1909;53.046;8.276;2023-02-21T11:56:16;10.80;99.90
3788;DHT22;1909;53.046;8.276;2023-02-21T12:01:13;10.70;99.90
3788;DHT22;1909;53.046;8.276;2023-02-21T12:03:50;10.80;99.90
3788;DHT22;1909;53.046;8.276;2023-02-21T12:06:24;10.90;99.90
3788;DHT22;1909;53.046;8.276;2023-02-21T12:08:54;11.00;99.90
3788;DHT22;1909;53.046;8.276;2023-02-21T12:11:42;11.10;99.90
3788;DHT22;1909;53.046;8.276;2023-02-21T12:14:15;11.20;99.90
3788;DHT22;1909;53.046;8.276;2023-02-21T12:16:46;11.10;99.90
3788;DHT22;1909;53.046;8.276;2023-02-21T12:19:20;11.00;99.90
3788;DHT22;1909;53.046;8.276;2023-02-21T12:22:00;11.10;99.90
3788;DHT22;1909;53.046;8.276;2023-02-21T12:24:32;11.20;99.90
3788;DHT22;1909;53.046;8.276;2023-02-21T12:27:05;11.20;99.90
3788;DHT22;1909;53.046;8.276;2023-02-21T12:29:40;11.10;99.90
3788;DHT22;1909;53.046;8.276;2023-02-21T12:32:15;11.10;99.90
3788;DHT22;1909;53.046;8.276;2023-02-21T12:34:52;11.10;99.90
3788;DHT22;1909;53.046;8.276;2023-02-21T12:37:24;11.10;99.90
3788;DHT22;1909;53.046;8.276;2023-02-21T12:49:44;10.90;99.90
3788;DHT22;1909;53.046;8.276;2023-02-21T12:52:13;10.90;99.90
3788;DHT22;1909;53.046;8.276;2023-02-21T12:57:10;10.90;99.90
3788;DHT22;1909;53.046;8.276;2023-02-21T13:59:29;11.20;99.90
3788;DHT22;1909;53.046;8.276;2023-02-21T14:14:40;11.10;99.90
3788;DHT22;1909;53.046;8.276;2023-02-21T14:24:38;11.00;99.90
3788;DHT22;1909;53.046;8.276;2023-02-21T17:50:32;10.40;99.90
3788;DHT22;1909;53.046;8.276;2023-02-21T17:52:59;10.40;99.90
3788;DHT22;1909;53.046;8.276;2023-02-21T17:55:26;10.40;99.90
3788;DHT22;1909;53.046;8.276;2023-02-21T17:57:53;10.30;99.90
3788;DHT22;1909;53.046;8.276;2023-02-21T18:00:20;10.20;99.90
3788;DHT22;1909;53.046;8.276;2023-02-21T18:05:15;10.40;99.90
3788;DHT22;1909;53.046;8.276;2023-02-21T18:07:45;10.40;99.90
3788;DHT22;1909;53.046;8.276;2023-02-21T18:10:12;10.30;99.90
3788;DHT22;1909;53.046;8.276;2023-02-21T18:12:39;10.10;99.90
3788;DHT22;1909;53.046;8.276;2023-02-21T18:15:05;10.20;99.90
3788;DHT22;1909;53.046;8.276;2023-02-21T18:17:34;10.20;99.90
3788;DHT22;1909;53.046;8.276;2023-02-21T18:20:00;10.30;99.90
3788;DHT22;1909;53.046;8.276;2023-02-21T18:22:27;10.20;99.90
3788;DHT22;1909;53.046;8.276;2023-02-21T18:24:55;10.20;99.90
3788;DHT22;1909;53.046;8.276;2023-02-21T18:27:21;10.30;99.90
3788;DHT22;1909;53.046;8.276;2023-02-21T18:29:48;10.10;99.90
3788;DHT22;1909;53.046;8.276;2023-02-21T18:32:18;10.10;99.90
3788;DHT22;1909;53.046;8.276;2023-02-21T18:34:45;10.10;99.90
3788;DHT22;1909;53.046;8.276;2023-02-21T18:37:11;10.10;99.90
3788;DHT22;1909;53.046;8.276;2023-02-21T18:39:38;10.10;99.90
3788;DHT22;1909;53.046;8.276;2023-02-21T18:42:06;10.10;99.90
3788;DHT22;1909;53.046;8.276;2023-02-21T18:44:32;10.10;99.90
3788;DHT22;1909;53.046;8.276;2023-02-21T18:46:59;10.00;99.90
3788;DHT22;1909;53.046;8.276;2023-02-21T18:49:26;10.00;99.90
3788;DHT22;1909;53.046;8.276;2023-02-21T18:51:56;10.00;99.90
3788;DHT22;1909;53.046;8.276;2023-02-21T18:54:25;10.00;99.90
3788;DHT22;1909;53.046;8.276;2023-02-21T18:56:52;10.00;99.90
3788;DHT22;1909;53.046;8.276;2023-02-21T18:59:20;10.00;99.90
3788;DHT22;1909;53.046;8.276;2023-02-21T19:01:47;10.10;99.90
3788;DHT22;1909;53.046;8.276;2023-02-21T19:04:14;10.00;99.90
3788;DHT22;1909;53.046;8.276;2023-02-21T19:06:41;10.10;99.90
3788;DHT22;1909;53.046;8.276;2023-02-21T19:09:07;10.10;99.90
3788;DHT22;1909;53.046;8.276;2023-02-21T19:11:34;10.10;99.90
3788;DHT22;1909;53.046;8.276;2023-02-21T19:14:00;10.10;99.90
3788;DHT22;1909;53.046;8.276;2023-02-21T19:16:29;10.00;99.90
3788;DHT22;1909;53.046;8.276;2023-02-21T19:18:56;10.10;99.90
3788;DHT22;1909;53.046;8.276;2023-02-21T19:21:22;10.00;99.90
3788;DHT22;1909;53.046;8.276;2023-02-21T19:23:49;9.90;99.90
3788;DHT22;1909;53.046;8.276;2023-02-21T19:26:17;9.80;99.90
3788;DHT22;1909;53.046;8.276;2023-02-21T19:28:43;9.80;99.90
3788;DHT22;1909;53.046;8.276;2023-02-21T19:31:10;9.80;99.90
3788;DHT22;1909;53.046;8.276;2023-02-21T19:33:39;9.80;99.90
3788;DHT22;1909;53.046;8.276;2023-02-21T19:36:06;9.70;99.90
3788;DHT22;1909;53.046;8.276;2023-02-21T19:38:33;9.70;99.90
3788;DHT22;1909;53.046;8.276;2023-02-21T19:40:59;9.80;99.90
3788;DHT22;1909;53.046;8.276;2023-02-21T19:43:26;9.70;99.90
3788;DHT22;1909;53.046;8.276;2023-02-21T19:45:53;9.70;99.90
3788;DHT22;1909;53.046;8.276;2023-02-21T19:48:19;9.70;99.90
3788;DHT22;1909;53.046;8.276;2023-02-21T19:50:48;9.60;99.90
3788;DHT22;1909;53.046;8.276;2023-02-21T19:53:14;9.50;99.90
3788;DHT22;1909;53.046;8.276;2023-02-21T19:55:41;9.50;99.90
3788;DHT22;1909;53.046;8.276;2023-02-21T19:58:08;9.60;99.90
3788;DHT22;1909;53.046;8.276;2023-02-21T20:00:35;9.70;99.90
3788;DHT22;1909;53.046;8.276;2023-02-21T20:03:03;9.60;99.90
3788;DHT22;1909;53.046;8.276;2023-02-21T20:05:29;9.60;99.90
3788;DHT22;1909;53.046;8.276;2023-02-21T20:07:57;9.60;99.90
3788;DHT22;1909;53.046;8.276;2023-02-21T20:10:24;9.60;99.90
3788;DHT22;1909;53.046;8.276;2023-02-21T20:12:50;9.60;99.90
3788;DHT22;1909;53.046;8.276;2023-02-21T20:15:17;9.60;99.90
3788;DHT22;1909;53.046;8.276;2023-02-21T20:17:44;9.60;99.90
3788;DHT22;1909;53.046;8.276;2023-02-21T20:20:10;9.60;99.90
3788;DHT22;1909;53.046;8.276;2023-02-21T20:22:37;9.60;99.90
3788;DHT22;1909;53.046;8.276;2023-02-21T20:25:06;9.60;99.90
3788;DHT22;1909;53.046;8.276;2023-02-21T20:27:33;9.60;99.90
3788;DHT22;1909;53.046;8.276;2023-02-21T20:30:00;9.50;99.90
3788;DHT22;1909;53.046;8.276;2023-02-21T20:32:26;9.50;99.90
3788;DHT22;1909;53.046;8.276;2023-02-21T20:34:53;9.50;99.90
3788;DHT22;1909;53.046;8.276;2023-02-21T20:37:21;9.50;99.90
3788;DHT22;1909;53.046;8.276;2023-02-21T20:39:48;9.50;99.90
3788;DHT22;1909;53.046;8.276;2023-02-21T20:42:16;9.50;99.90
3788;DHT22;1909;53.046;8.276;2023-02-21T20:44:44;9.50;99.90
3788;DHT22;1909;53.046;8.276;2023-02-21T20:47:12;9.50;99.90
3788;DHT22;1909;53.046;8.276;2023-02-21T20:49:41;9.50;99.90
3788;DHT22;1909;53.046;8.276;2023-02-21T20:52:07;9.50;99.90
3788;DHT22;1909;53.046;8.276;2023-02-21T20:54:34;9.50;99.90
3788;DHT22;1909;53.046;8.276;2023-02-21T20:57:00;9.50;99.90
3788;DHT22;1909;53.046;8.276;2023-02-21T20:59:30;9.50;99.90
3788;DHT22;1909;53.046;8.276;2023-02-21T21:01:57;9.60;99.90
3788;DHT22;1909;53.046;8.276;2023-02-21T21:04:24;9.60;99.90
3788;DHT22;1909;53.046;8.276;2023-02-21T21:06:52;9.60;99.90
3788;DHT22;1909;53.046;8.276;2023-02-21T21:09:19;9.60;99.90
3788;DHT22;1909;53.046;8.276;2023-02-21T21:11:53;9.60;99.90
3788;DHT22;1909;53.046;8.276;2023-02-21T21:14:24;9.60;99.90
3788;DHT22;1909;53.046;8.276;2023-02-21T21:16:52;9.60;99.90
3788;DHT22;1909;53.046;8.276;2023-02-21T21:19:21;9.50;99.90
3788;DHT22;1909;53.046;8.276;2023-02-21T21:21:47;9.50;99.90
3788;DHT22;1909;53.046;8.276;2023-02-21T21:24:15;9.50;99.90
3788;DHT22;1909;53.046;8.276;2023-02-21T21:26:42;9.50;99.90
3788;DHT22;1909;53.046;8.276;2023-02-21T21:29:11;9.40;99.90
3788;DHT22;1909;53.046;8.276;2023-02-21T21:31:44;9.50;99.90
3788;DHT22;1909;53.046;8.276;2023-02-21T21:58:43;9.60;99.90
3788;DHT22;1909;53.046;8.276;2023-02-21T22:01:09;9.60;99.90
3788;DHT22;1909;53.046;8.276;2023-02-21T22:03:39;9.60;99.90
3788;DHT22;1909;53.046;8.276;2023-02-21T22:06:06;9.60;99.90
3788;DHT22;1909;53.046;8.276;2023-02-21T22:08:35;9.60;99.90
3788;DHT22;1909;53.046;8.276;2023-02-21T22:11:03;9.60;99.90
3788;DHT22;1909;53.046;8.276;2023-02-21T22:13:34;9.50;99.90
3788;DHT22;1909;53.046;8.276;2023-02-21T22:16:02;9.50;99.90
3788;DHT22;1909;53.046;8.276;2023-02-21T22:18:29;9.60;99.90
3788;DHT22;1909;53.046;8.276;2023-02-21T22:20:56;9.50;99.90
3788;DHT22;1909;53.046;8.276;2023-02-21T22:23:23;9.60;99.90
3788;DHT22;1909;53.046;8.276;2023-02-21T22:25:50;9.60;99.90
3788;DHT22;1909;53.046;8.276;2023-02-21T22:28:17;9.50;99.90
3788;DHT22;1909;53.046;8.276;2023-02-21T22:30:44;9.50;99.90
3788;DHT22;1909;53.046;8.276;2023-02-21T22:33:15;9.50;99.90
3788;DHT22;1909;53.046;8.276;2023-02-21T22:35:44;9.50;99.90
3788;DHT22;1909;53.046;8.276;2023-02-21T22:38:11;9.50;99.90
3788;DHT22;1909;53.046;8.276;2023-02-21T22:40:41;9.50;99.90
3788;DHT22;1909;53.046;8.276;2023-02-21T22:43:09;9.50;99.90
3788;DHT22;1909;53.046;8.276;2023-02-21T22:45:38;9.50;99.90
3788;DHT22;1909;53.046;8.276;2023-02-21T22:48:05;9.50;99.90
3788;DHT22;1909;53.046;8.276;2023-02-21T22:50:35;9.20;99.90
3788;DHT22;1909;53.046;8.276;2023-02-21T22:55:33;9.50;99.90
3788;DHT22;1909;53.046;8.276;2023-02-21T22:58:02;9.50;99.90
3788;DHT22;1909;53.046;8.276;2023-02-21T23:00:30;9.40;99.90
3788;DHT22;1909;53.046;8.276;2023-02-21T23:02:58;9.50;99.90
3788;DHT22;1909;53.046;8.276;2023-02-21T23:05:26;9.50;99.90
3788;DHT22;1909;53.046;8.276;2023-02-21T23:07:55;9.40;99.90
3788;DHT22;1909;53.046;8.276;2023-02-21T23:10:24;9.40;99.90
3788;DHT22;1909;53.046;8.276;2023-02-21T23:12:52;9.40;99.90
3788;DHT22;1909;53.046;8.276;2023-02-21T23:15:21;9.40;99.90
3788;DHT22;1909;53.046;8.276;2023-02-21T23:17:49;9.40;99.90
3788;DHT22;1909;53.046;8.276;2023-02-21T23:20:19;9.40;99.90
3788;DHT22;1909;53.046;8.276;2023-02-21T23:22:48;9.30;99.90
3788;DHT22;1909;53.046;8.276;2023-02-21T23:25:18;9.40;99.90
3788;DHT22;1909;53.046;8.276;2023-02-21T23:27:49;9.40;99.90
3788;DHT22;1909;53.046;8.276;2023-02-21T23:30:17;9.30;99.90
3788;DHT22;1909;53.046;8.276;2023-02-21T23:32:45;9.30;99.90
3788;DHT22;1909;53.046;8.276;2023-02-21T23:35:13;9.40;99.90
3788;DHT22;1909;53.046;8.276;2023-02-21T23:37:40;9.40;99.90
3788;DHT22;1909;53.046;8.276;2023-02-21T23:40:10;9.30;99.90
3788;DHT22;1909;53.046;8.276;2023-02-21T23:50:15;9.50;99.90
3788;DHT22;1909;53.046;8.276;2023-02-21T23:52:44;9.50;99.90
3788;DHT22;1909;53.046;8.276;2023-02-21T23:55:12;9.40;99.90
3788;DHT22;1909;53.046;8.276;2023-02-21T23:57:39;9.40;99.90
